Time;durP1;ratioP1;P1;durP2;ratioP2;P2;SDS_P1;SDS_P2;PMS_P1;PMS_P2;Temp;Humidity;BMP_temperature;BMP_pressure;BME280_temperature;BME280_humidity;BME280_pressure;Samples;Min_cycle;Max_cycle;Signal;HPM_P1;HPM_P2
2021/06/01 00:01:30;;;;;;;5.10;4.70;;;;;;;13.42;100.00;100684.09;1733304;82;20932;-73
2021/06/01 00:03:58;;;;;;;5.25;4.72;;;;;;;13.44;100.00;100686.09;1733537;82;20980;-73
2021/06/01 00:06:26;;;;;;;5.30;4.80;;;;;;;13.45;100.00;100691.20;1720775;82;21080;-73
2021/06/01 00:08:54;;;;;;;5.20;4.70;;;;;;;13.47;100.00;100692.37;1716938;83;20902;-69
2021/06/01 00:11:21;;;;;;;7.35;4.75;;;;;;;13.46;100.00;100686.35;1716718;83;21073;-70
2021/06/01 00:13:48;;;;;;;5.90;5.22;;;;;;;13.47;100.00;100684.08;1716880;83;20989;-71
2021/06/01 00:16:15;;;;;;;5.40;4.85;;;;;;;13.48;100.00;100681.84;1716787;83;21040;-70
2021/06/01 00:18:43;;;;;;;5.20;4.70;;;;;;;13.49;100.00;100683.50;1716963;83;21005;-73
2021/06/01 00:21:10;;;;;;;5.90;4.45;;;;;;;13.53;100.00;100682.30;1716975;83;21021;-71
2021/06/01 00:23:37;;;;;;;5.37;4.85;;;;;;;13.54;100.00;100679.22;1716962;83;21085;-69
2021/06/01 00:26:06;;;;;;;5.87;4.35;;;;;;;13.53;100.00;100675.78;1716900;83;20989;-71
2021/06/01 00:28:34;;;;;;;5.72;4.42;;;;;;;13.55;100.00;100675.67;1716977;83;20880;-70
2021/06/01 00:31:02;;;;;;;5.28;4.50;;;;;;;13.56;100.00;100669.52;1716746;83;21079;-71
2021/06/01 00:33:29;;;;;;;4.70;4.05;;;;;;;13.57;100.00;100667.24;1716779;83;21037;-72
2021/06/01 00:35:56;;;;;;;6.08;4.22;;;;;;;13.55;100.00;100660.86;1716812;83;21933;-68
2021/06/01 00:38:23;;;;;;;4.75;4.28;;;;;;;13.57;100.00;100653.73;1716693;83;20916;-74
2021/06/01 00:40:50;;;;;;;4.55;3.92;;;;;;;13.56;100.00;100659.09;1716937;83;20973;-71
2021/06/01 00:43:17;;;;;;;5.75;4.08;;;;;;;13.55;100.00;100658.26;1716582;83;21084;-70
2021/06/01 00:45:45;;;;;;;4.70;3.95;;;;;;;13.55;100.00;100654.34;1716864;83;21076;-69
2021/06/01 00:48:12;;;;;;;4.22;3.83;;;;;;;13.55;100.00;100652.20;1716751;83;21523;-70
2021/06/01 00:50:39;;;;;;;4.47;3.40;;;;;;;13.55;100.00;100650.91;1716711;83;21021;-69
2021/06/01 00:53:07;;;;;;;4.72;3.50;;;;;;;13.55;100.00;100656.95;1716694;83;21882;-70
2021/06/01 00:55:34;;;;;;;3.80;3.50;;;;;;;13.56;100.00;100649.97;1716792;83;21582;-68
2021/06/01 00:58:02;;;;;;;6.95;3.42;;;;;;;13.57;100.00;100655.52;1716811;83;20986;-70
2021/06/01 01:02:57;;;;;;;4.00;3.65;;;;;;;13.60;100.00;100646.14;1716754;83;21048;-69
2021/06/01 01:05:30;;;;;;;3.37;3.08;;;;;;;13.60;100.00;100643.06;1719713;82;20944;-70
2021/06/01 01:11:13;;;;;;;3.70;2.70;;;;;;;13.64;100.00;100641.05;1733384;82;21653;-69
2021/06/01 01:13:58;;;;;;;7.67;2.97;;;;;;;13.67;100.00;100639.03;1733561;82;21617;-71
2021/06/01 01:16:28;;;;;;;4.08;2.98;;;;;;;13.70;100.00;100640.09;1733159;82;21064;-70
2021/06/01 01:19:01;;;;;;;3.33;3.02;;;;;;;13.71;100.00;100643.06;1733187;82;21071;-69
2021/06/01 01:21:38;;;;;;;2.62;2.42;;;;;;;13.73;100.00;100641.63;1732511;82;20984;-71
2021/06/01 01:24:17;;;;;;;3.42;2.75;;;;;;;13.74;100.00;100638.91;1733749;82;21115;-68
2021/06/01 01:27:20;;;;;;;3.72;2.60;;;;;;;13.75;100.00;100637.94;1721284;82;21023;-70
2021/06/01 01:29:48;;;;;;;2.58;2.35;;;;;;;13.75;100.00;100635.83;1733295;82;20992;-72
2021/06/01 01:32:30;;;;;;;2.20;2.00;;;;;;;13.75;100.00;100641.84;1733376;82;20916;-68
2021/06/01 01:34:58;;;;;;;2.85;1.82;;;;;;;13.74;100.00;100635.00;1733373;82;21052;-76
2021/06/01 01:37:27;;;;;;;2.40;1.37;;;;;;;13.74;100.00;100635.47;1733386;82;21084;-70
2021/06/01 01:39:59;;;;;;;1.52;1.40;;;;;;;13.70;100.00;100630.97;1733161;82;21824;-77
2021/06/01 01:42:24;;;;;;;1.27;1.17;;;;;;;13.69;100.00;100628.46;1733040;82;21036;-72
2021/06/01 01:44:53;;;;;;;1.02;1.00;;;;;;;13.69;100.00;100625.86;1733236;82;21532;-72
2021/06/01 01:50:08;;;;;;;1.37;0.80;;;;;;;13.67;100.00;100623.38;1733317;82;21060;-71
2021/06/01 01:52:40;;;;;;;2.15;0.93;;;;;;;13.66;100.00;100621.72;1728598;82;21075;-72
2021/06/01 01:55:09;;;;;;;1.23;0.70;;;;;;;13.65;100.00;100613.56;1728732;83;21582;-69
2021/06/01 01:57:37;;;;;;;0.88;0.88;;;;;;;13.62;100.00;100615.11;1728199;83;21096;-73
2021/06/01 02:00:09;;;;;;;1.75;1.07;;;;;;;13.57;100.00;100618.54;1728312;83;20993;-74
2021/06/01 02:02:36;;;;;;;2.37;0.95;;;;;;;13.53;100.00;100612.41;1728601;83;21601;-74
2021/06/01 02:05:06;;;;;;;0.80;0.80;;;;;;;13.50;100.00;100613.92;1728410;83;21079;-72
2021/06/01 02:07:33;;;;;;;1.00;0.90;;;;;;;13.48;100.00;100619.27;1721910;83;21037;-72
2021/06/01 02:10:03;;;;;;;3.15;0.90;;;;;;;13.47;100.00;100611.09;1721920;83;21597;-71
2021/06/01 02:12:30;;;;;;;1.98;0.93;;;;;;;13.47;100.00;100620.68;1722057;83;20985;-73
2021/06/01 02:14:57;;;;;;;2.05;0.82;;;;;;;13.46;100.00;100621.18;1721717;83;21582;-68
2021/06/01 02:17:24;;;;;;;1.37;0.85;;;;;;;13.46;100.00;100621.65;1722102;83;21661;-84
2021/06/01 02:19:51;;;;;;;1.05;0.95;;;;;;;13.48;100.00;100619.73;1721882;83;20903;-72
2021/06/01 02:25:21;;;;;;;1.00;0.90;;;;;;;13.44;100.00;100622.22;1721804;83;21009;-76
2021/06/01 02:28:07;;;;;;;1.20;1.10;;;;;;;13.42;100.00;100618.92;1721717;83;21063;-77
2021/06/01 02:30:45;;;;;;;0.90;0.90;;;;;;;13.39;100.00;100621.77;1722263;83;21478;-73
2021/06/01 02:33:14;;;;;;;0.70;0.70;;;;;;;13.36;100.00;100622.01;1715127;83;20958;-70
2021/06/01 02:35:41;;;;;;;1.12;0.90;;;;;;;13.37;100.00;100622.38;1721963;83;20969;-70
2021/06/01 02:38:10;;;;;;;2.25;0.78;;;;;;;13.35;100.00;100619.87;1721814;83;20957;-72
2021/06/01 02:40:38;;;;;;;1.22;0.98;;;;;;;13.35;100.00;100619.04;1722250;83;21001;-71
2021/06/01 02:43:08;;;;;;;2.67;0.82;;;;;;;13.34;100.00;100618.20;1722087;83;21093;-74
2021/06/01 02:45:37;;;;;;;2.27;1.30;;;;;;;13.34;100.00;100617.41;1721724;83;21025;-72
2021/06/01 02:48:06;;;;;;;3.05;0.80;;;;;;;13.33;100.00;100621.78;1721742;83;21388;-70
2021/06/01 02:50:33;;;;;;;1.45;0.93;;;;;;;13.33;100.00;100614.43;1721952;83;21032;-73
2021/06/01 02:53:01;;;;;;;0.93;0.75;;;;;;;13.32;100.00;100615.38;1721943;83;21040;-71
2021/06/01 02:55:28;;;;;;;3.83;0.90;;;;;;;13.32;100.00;100616.20;1722007;83;21687;-73
2021/06/01 02:57:55;;;;;;;2.00;0.90;;;;;;;13.33;100.00;100610.52;1721803;83;20937;-76
2021/06/01 03:00:23;;;;;;;2.47;0.90;;;;;;;13.34;100.00;100611.69;1721847;83;20905;-71
2021/06/01 03:02:50;;;;;;;1.30;1.00;;;;;;;13.35;100.00;100611.22;1721977;83;20917;-71
2021/06/01 03:05:18;;;;;;;1.30;1.07;;;;;;;13.36;100.00;100610.28;1722055;83;21025;-69
2021/06/01 03:07:53;;;;;;;1.10;0.90;;;;;;;13.38;100.00;100613.58;1727646;83;21109;-70
2021/06/01 03:10:23;;;;;;;1.60;1.10;;;;;;;13.38;100.00;100617.02;1728023;83;20953;-71
2021/06/01 03:12:58;;;;;;;1.80;1.00;;;;;;;13.40;100.00;100609.10;1728268;83;20976;-73
2021/06/01 03:15:23;;;;;;;2.55;1.10;;;;;;;13.42;100.00;100605.89;1735290;82;21003;-75
2021/06/01 03:17:50;;;;;;;1.87;1.55;;;;;;;13.43;100.00;100604.48;1735853;82;20968;-70
2021/06/01 03:20:17;;;;;;;2.80;1.87;;;;;;;13.44;100.00;100601.37;1735752;82;21656;-69
2021/06/01 03:22:45;;;;;;;2.58;2.12;;;;;;;13.45;100.00;100605.17;1736044;82;20944;-70
2021/06/01 03:25:12;;;;;;;2.20;2.00;;;;;;;13.47;100.00;100608.95;1735892;82;21654;-72
2021/06/01 03:27:40;;;;;;;2.87;2.08;;;;;;;13.49;100.00;100607.07;1735584;82;21067;-71
2021/06/01 03:30:09;;;;;;;2.20;2.02;;;;;;;13.49;100.00;100607.07;1735766;82;21039;-71
2021/06/01 03:32:36;;;;;;;2.05;1.95;;;;;;;13.50;100.00;100604.33;1735888;82;21080;-69
2021/06/01 03:35:04;;;;;;;3.30;1.75;;;;;;;13.51;100.00;100594.73;1735412;82;21621;-71
2021/06/01 03:37:31;;;;;;;3.47;2.20;;;;;;;13.52;100.00;100596.40;1735957;82;20889;-71
2021/06/01 03:39:58;;;;;;;3.12;2.33;;;;;;;13.52;100.00;100597.23;1735846;82;21004;-72
2021/06/01 03:42:27;;;;;;;2.65;1.92;;;;;;;13.54;100.00;100599.23;1735751;82;21084;-69
2021/06/01 03:44:55;;;;;;;2.72;2.52;;;;;;;13.56;100.00;100609.05;1735982;82;21221;-72
2021/06/01 03:47:23;;;;;;;4.30;2.67;;;;;;;13.57;100.00;100609.88;1735775;82;21052;-72
2021/06/01 03:49:50;;;;;;;3.80;2.90;;;;;;;13.54;100.00;100610.96;1736066;82;20977;-72
2021/06/01 03:52:17;;;;;;;2.92;2.45;;;;;;;13.51;100.00;100611.20;1735687;82;21040;-73
2021/06/01 03:54:44;;;;;;;3.02;2.72;;;;;;;13.50;100.00;100604.33;1736128;82;21534;-76
2021/06/01 03:57:11;;;;;;;2.50;2.15;;;;;;;13.49;100.00;100602.69;1735607;82;21661;-73
2021/06/01 03:59:39;;;;;;;2.60;2.40;;;;;;;13.46;100.00;100608.14;1735728;82;20984;-70
2021/06/01 04:02:07;;;;;;;2.60;2.40;;;;;;;13.48;100.00;100606.70;1735575;82;20975;-69
2021/06/01 04:04:35;;;;;;;3.17;2.30;;;;;;;13.48;100.00;100603.63;1735462;82;20916;-74
2021/06/01 04:07:04;;;;;;;3.55;2.50;;;;;;;13.48;100.00;100601.48;1731234;82;21004;-70
2021/06/01 04:09:32;;;;;;;2.80;2.47;;;;;;;13.47;100.00;100598.52;1726583;83;21101;-73
2021/06/01 04:11:59;;;;;;;3.77;1.95;;;;;;;13.48;100.00;100602.33;1726640;83;21562;-72
2021/06/01 04:14:26;;;;;;;4.45;2.17;;;;;;;13.48;100.00;100604.09;1726984;82;20992;-74
2021/06/01 04:16:55;;;;;;;2.72;2.12;;;;;;;13.48;100.00;100601.48;1726700;83;21479;-72
2021/06/01 04:19:22;;;;;;;3.35;2.33;;;;;;;13.44;100.00;100603.98;1726718;83;20960;-71
2021/06/01 04:21:51;;;;;;;3.80;1.98;;;;;;;13.44;100.00;100601.37;1726755;82;21092;-70
2021/06/01 04:24:18;;;;;;;2.27;2.08;;;;;;;13.44;100.00;100610.02;1726384;83;20984;-71
2021/06/01 04:26:45;;;;;;;2.60;2.10;;;;;;;13.43;100.00;100603.17;1726602;83;21036;-70
2021/06/01 04:29:12;;;;;;;3.05;1.70;;;;;;;13.43;100.00;100611.00;1726561;83;20925;-68
2021/06/01 04:31:41;;;;;;;2.00;1.80;;;;;;;13.43;100.00;100604.95;1726872;82;20922;-74
2021/06/01 04:34:08;;;;;;;3.98;1.95;;;;;;;13.44;100.00;100606.58;1726495;82;21081;-70
2021/06/01 04:36:35;;;;;;;3.22;2.40;;;;;;;13.44;100.00;100606.58;1726755;82;22095;-70
2021/06/01 04:39:02;;;;;;;2.90;2.35;;;;;;;13.42;100.00;100604.11;1726771;83;20968;-72
2021/06/01 04:41:30;;;;;;;1.98;1.70;;;;;;;13.41;100.00;100608.97;1726789;82;21027;-76
2021/06/01 04:43:57;;;;;;;2.67;2.00;;;;;;;13.39;100.00;100604.36;1726879;82;21060;-71
2021/06/01 04:46:24;;;;;;;3.60;2.20;;;;;;;13.40;100.00;100612.51;1726862;83;21089;-70
2021/06/01 04:48:51;;;;;;;2.62;2.37;;;;;;;13.40;100.00;100604.69;1726700;83;20916;-72
2021/06/01 04:51:19;;;;;;;3.83;2.80;;;;;;;13.43;100.00;100607.09;1726731;83;21004;-69
2021/06/01 04:53:53;;;;;;;3.65;3.00;;;;;;;13.43;100.00;100608.86;1726993;83;21048;-72
2021/06/01 04:56:20;;;;;;;2.50;2.25;;;;;;;13.42;100.00;100607.19;1726630;82;20968;-72
2021/06/01 04:58:47;;;;;;;2.72;2.37;;;;;;;13.44;100.00;100611.33;1726721;83;21678;-70
2021/06/01 05:01:14;;;;;;;4.75;2.62;;;;;;;13.46;100.00;100609.92;1726873;82;20943;-71
2021/06/01 05:03:41;;;;;;;3.37;2.35;;;;;;;13.46;100.00;100606.01;1726862;82;21016;-72
2021/06/01 05:06:08;;;;;;;2.90;2.40;;;;;;;13.46;100.00;100608.14;1726634;83;21016;-70
2021/06/01 05:08:36;;;;;;;3.85;2.52;;;;;;;13.48;100.00;100608.01;1735150;82;21034;-72
2021/06/01 05:11:04;;;;;;;4.28;2.60;;;;;;;13.47;100.00;100612.39;1735532;82;21588;-73
2021/06/01 05:13:31;;;;;;;2.40;1.98;;;;;;;13.47;100.00;100611.55;1735523;82;21629;-71
2021/06/01 05:15:59;;;;;;;4.75;2.77;;;;;;;13.49;100.00;100616.19;1735551;82;20999;-71
2021/06/01 05:18:27;;;;;;;3.40;2.55;;;;;;;13.49;100.00;100614.42;1735565;82;21132;-71
2021/06/01 05:20:54;;;;;;;2.50;2.30;;;;;;;13.49;100.00;100615.72;1735907;82;20909;-71
2021/06/01 05:23:21;;;;;;;8.60;2.95;;;;;;;13.47;100.00;100612.39;1735396;82;21096;-71
2021/06/01 05:25:48;;;;;;;2.95;2.55;;;;;;;13.47;100.00;100618.07;1735572;82;20972;-70
2021/06/01 05:28:15;;;;;;;3.37;3.08;;;;;;;13.49;100.00;100625.31;1735895;82;21505;-68
2021/06/01 05:31:28;;;;;;;5.15;2.67;;;;;;;13.44;100.00;100624.83;1735527;82;21493;-71
2021/06/01 05:33:23;;;;;;;3.20;2.90;;;;;;;13.39;100.00;100629.12;1717477;82;20993;-72
2021/06/01 05:35:56;;;;;;;5.00;3.10;;;;;;;13.40;100.00;100629.95;1734659;82;21100;-70
2021/06/01 05:38:16;;;;;;;5.17;3.30;;;;;;;13.40;100.00;100631.25;1732143;82;20964;-69
2021/06/01 05:40:44;;;;;;;5.05;3.42;;;;;;;13.38;100.00;100635.27;1735727;82;21459;-69
2021/06/01 05:43:11;;;;;;;3.70;3.33;;;;;;;13.38;100.00;100635.73;1735401;82;21020;-75
2021/06/01 05:45:38;;;;;;;4.10;3.70;;;;;;;13.39;100.00;100634.33;1735524;82;20988;-70
2021/06/01 05:48:07;;;;;;;6.05;4.65;;;;;;;13.41;100.00;100640.24;1735689;82;21115;-72
2021/06/01 05:50:35;;;;;;;4.90;4.08;;;;;;;13.41;100.00;100635.50;1735742;82;21478;-70
2021/06/01 05:53:02;;;;;;;4.33;3.80;;;;;;;13.39;100.00;100637.41;1735730;82;20980;-69
2021/06/01 05:55:29;;;;;;;7.58;5.40;;;;;;;13.38;100.00;100639.65;1698350;82;21900;-71
2021/06/01 05:57:56;;;;;;;4.40;4.00;;;;;;;13.38;100.00;100638.34;1704385;82;21147;-69
2021/06/01 06:00:24;;;;;;;7.25;4.03;;;;;;;13.36;100.00;100635.88;1733694;81;21099;-68
2021/06/01 06:02:52;;;;;;;4.65;4.10;;;;;;;13.28;100.00;100636.92;1737397;82;21071;-73
2021/06/01 06:05:21;;;;;;;7.58;4.62;;;;;;;13.24;100.00;100636.33;1736735;82;21131;-71
2021/06/01 06:07:48;;;;;;;4.65;4.20;;;;;;;13.23;100.00;100639.91;1737300;82;22141;-71
2021/06/01 06:10:16;;;;;;;5.60;4.37;;;;;;;13.22;100.00;100638.70;1738226;82;21517;-69
2021/06/01 06:12:43;;;;;;;4.15;3.75;;;;;;;13.22;100.00;100638.70;1738086;82;21605;-70
2021/06/01 06:15:17;;;;;;;4.22;3.62;;;;;;;13.20;100.00;100643.22;1737626;82;21071;-76
2021/06/01 06:17:55;;;;;;;4.85;4.10;;;;;;;13.17;100.00;100644.76;1737255;82;20991;-71
2021/06/01 06:20:22;;;;;;;5.03;4.35;;;;;;;13.16;100.00;100640.02;1729466;82;21108;-74
2021/06/01 06:22:49;;;;;;;6.55;4.62;;;;;;;13.10;100.00;100640.96;1737925;82;20980;-76
2021/06/01 06:25:18;;;;;;;4.00;3.60;;;;;;;13.02;100.00;100639.37;1737467;82;21034;-70
2021/06/01 06:27:45;;;;;;;5.45;4.55;;;;;;;12.99;100.00;100635.70;1717987;82;22303;-68
2021/06/01 06:30:14;;;;;;;4.85;4.33;;;;;;;12.97;100.00;100637.13;1734834;81;21694;-69
2021/06/01 06:32:41;;;;;;;6.10;4.42;;;;;;;12.96;100.00;100638.53;1734677;82;20984;-75
2021/06/01 06:35:11;;;;;;;5.30;4.05;;;;;;;12.94;100.00;100639.97;1733278;82;21614;-72
2021/06/01 06:37:39;;;;;;;4.72;3.85;;;;;;;12.91;100.00;100644.58;1734398;82;21737;-69
2021/06/01 06:40:09;;;;;;;4.70;4.30;;;;;;;12.87;100.00;100644.45;1730359;82;21055;-73
2021/06/01 06:42:37;;;;;;;4.03;3.45;;;;;;;12.85;100.00;100645.05;1734041;82;20995;-75
2021/06/01 06:45:09;;;;;;;4.10;3.70;;;;;;;12.81;100.00;100650.13;1735049;82;21016;-73
2021/06/01 06:50:13;;;;;;;4.45;3.75;;;;;;;12.70;100.00;100657.42;1733611;82;21331;-69
2021/06/01 06:52:41;;;;;;;4.20;3.80;;;;;;;12.75;100.00;100648.81;1734402;82;21495;-74
2021/06/01 06:55:14;;;;;;;4.85;4.00;;;;;;;12.82;100.00;100653.09;1734416;82;20952;-69
2021/06/01 06:57:43;;;;;;;4.08;3.37;;;;;;;12.85;100.00;100650.25;1733123;81;21127;-67
2021/06/01 07:00:17;;;;;;;3.77;3.35;;;;;;;12.86;100.00;100648.82;1734413;82;21127;-71
2021/06/01 07:02:46;;;;;;;3.55;3.00;;;;;;;12.82;100.00;100660.44;1734163;81;21132;-70
2021/06/01 07:05:16;;;;;;;4.42;3.17;;;;;;;12.78;100.00;100658.16;1733610;81;21016;-67
2021/06/01 07:07:45;;;;;;;3.27;2.98;;;;;;;12.71;100.00;100666.44;1734508;82;21031;-75
2021/06/01 07:10:13;;;;;;;4.95;2.85;;;;;;;12.68;100.00;100664.53;1734542;82;21027;-68
2021/06/01 07:12:43;;;;;;;6.60;3.25;;;;;;;12.62;100.00;100673.64;1734706;82;21248;-70
2021/06/01 07:15:30;;;;;;;3.85;2.87;;;;;;;12.61;100.00;100674.58;1733408;82;21103;-67
2021/06/01 07:18:00;;;;;;;3.50;3.20;;;;;;;12.60;100.00;100676.80;1732899;82;21048;-74
2021/06/01 07:20:32;;;;;;;4.62;3.15;;;;;;;12.60;100.00;100690.33;1733864;82;21404;-70
2021/06/01 07:22:59;;;;;;;4.57;3.80;;;;;;;12.57;100.00;100683.55;1733638;82;21051;-65
2021/06/01 07:25:27;;;;;;;4.10;3.70;;;;;;;12.50;100.00;100682.83;1734027;82;21015;-72
2021/06/01 07:27:54;;;;;;;4.08;3.65;;;;;;;12.45;100.00;100691.42;1733850;82;21111;-69
2021/06/01 07:30:22;;;;;;;4.15;3.33;;;;;;;12.38;100.00;100686.33;1734179;82;21031;-69
2021/06/01 07:32:49;;;;;;;4.40;3.30;;;;;;;12.33;100.00;100693.16;1733734;82;21212;-70
2021/06/01 07:35:16;;;;;;;4.12;3.72;;;;;;;12.31;100.00;100689.85;1734118;82;21114;-70
2021/06/01 07:37:45;;;;;;;4.30;3.87;;;;;;;12.33;100.00;100696.23;1732511;82;20944;-69
2021/06/01 07:40:12;;;;;;;3.98;3.35;;;;;;;12.29;100.00;100699.52;1733648;82;21755;-68
2021/06/01 07:42:39;;;;;;;5.05;3.42;;;;;;;12.26;100.00;100700.21;1737188;82;21101;-67
2021/06/01 07:45:09;;;;;;;3.50;3.20;;;;;;;12.20;100.00;100703.62;1737113;82;21363;-81
2021/06/01 07:47:36;;;;;;;3.55;3.25;;;;;;;12.22;100.00;100704.00;1736943;82;21095;-69
2021/06/01 07:50:05;;;;;;;4.42;4.03;;;;;;;12.21;100.00;100701.86;1737903;82;21003;-69
2021/06/01 07:52:35;;;;;;;4.03;3.50;;;;;;;12.24;100.00;100706.84;1737275;82;21071;-67
2021/06/01 07:55:06;;;;;;;7.58;3.80;;;;;;;12.28;100.00;100710.89;1737151;82;20996;-68
2021/06/01 07:57:34;;;;;;;4.42;3.83;;;;;;;12.35;100.00;100712.08;1736980;82;21031;-67
2021/06/01 08:00:01;;;;;;;4.22;3.77;;;;;;;12.37;100.00;100715.89;1737177;82;21106;-70
2021/06/01 08:02:30;;;;;;;4.90;3.40;;;;;;;12.41;100.00;100714.73;1735549;82;21079;-68
2021/06/01 08:05:00;;;;;;;3.15;2.62;;;;;;;12.42;100.00;100715.91;1737395;82;21093;-68
2021/06/01 08:07:27;;;;;;;3.50;2.33;;;;;;;12.44;100.00;100721.86;1736657;82;21083;-68
2021/06/01 08:09:55;;;;;;;2.55;1.90;;;;;;;12.45;100.00;100731.77;1737087;82;21015;-70
2021/06/01 08:12:22;;;;;;;2.45;2.02;;;;;;;12.40;100.00;100721.71;1737176;82;21673;-72
2021/06/01 08:14:52;;;;;;;2.67;1.92;;;;;;;12.30;100.00;100731.58;1737497;82;21055;-69
2021/06/01 08:17:18;;;;;;;2.47;2.17;;;;;;;12.18;100.00;100727.63;1737241;82;22275;-72
2021/06/01 08:19:48;;;;;;;2.90;1.87;;;;;;;12.10;100.00;100731.70;1737312;82;21051;-74
2021/06/01 08:24:46;;;;;;;3.47;2.70;;;;;;;12.09;100.00;100732.66;1738131;82;21018;-68
2021/06/01 08:27:13;;;;;;;2.27;2.08;;;;;;;12.14;100.00;100739.66;1737819;82;21047;-69
2021/06/01 08:29:40;;;;;;;3.22;2.60;;;;;;;12.20;100.00;100740.05;1737441;82;21111;-66
2021/06/01 08:32:08;;;;;;;2.72;2.45;;;;;;;12.19;100.00;100742.75;1737303;82;21043;-71
2021/06/01 08:34:35;;;;;;;2.72;2.50;;;;;;;12.19;100.00;100743.58;1737170;82;21182;-68
2021/06/01 08:37:04;;;;;;;2.58;2.35;;;;;;;12.19;100.00;100743.58;1737172;82;21186;-68
2021/06/01 08:39:31;;;;;;;2.65;2.45;;;;;;;12.22;100.00;100750.33;1736727;82;21142;-67
2021/06/01 08:42:02;;;;;;;2.50;2.30;;;;;;;12.24;100.00;100745.87;1736577;82;21704;-70
2021/06/01 08:44:31;;;;;;;3.90;3.17;;;;;;;12.25;100.00;100746.23;1736717;82;21783;-75
2021/06/01 08:47:01;;;;;;;4.95;2.90;;;;;;;12.24;100.00;100753.67;1737150;82;20948;-71
2021/06/01 08:49:28;;;;;;;3.47;3.17;;;;;;;12.19;100.00;100759.19;1737276;82;21580;-67
2021/06/01 08:51:55;;;;;;;4.35;3.50;;;;;;;12.18;100.00;100761.92;1729076;81;21748;-73
2021/06/01 08:54:22;;;;;;;4.35;3.95;;;;;;;12.21;100.00;100761.70;1736129;82;21182;-72
2021/06/01 08:56:49;;;;;;;4.80;4.25;;;;;;;12.20;100.00;100767.37;1737318;82;20980;-73
2021/06/01 08:59:22;;;;;;;4.35;3.95;;;;;;;12.14;100.00;100760.47;1737143;82;21173;-68
2021/06/01 09:01:51;;;;;;;4.87;4.40;;;;;;;12.10;100.00;100765.52;1738046;82;21550;-74
2021/06/01 09:04:20;;;;;;;4.90;4.40;;;;;;;12.08;100.00;100769.55;1737429;82;21962;-72
2021/06/01 09:06:55;;;;;;;5.05;4.60;;;;;;;12.04;100.00;100768.09;1671493;85;21341;-71
2021/06/01 09:23:06;;;;;;;6.28;5.67;;;;;;;11.87;100.00;100778.83;1720544;83;38059;-73
2021/06/01 09:25:43;;;;;;;6.28;5.67;;;;;;;11.88;100.00;100780.50;1720314;83;26852;-71
2021/06/01 09:28:13;;;;;;;6.67;6.03;;;;;;;11.91;100.00;100778.15;1717919;83;21095;-72
2021/06/01 09:30:59;;;;;;;6.17;5.58;;;;;;;11.94;100.00;100781.83;1713175;81;21033;-70
2021/06/01 09:33:31;;;;;;;6.53;5.92;;;;;;;11.99;100.00;100785.80;1744014;81;21667;-71
2021/06/01 09:36:06;;;;;;;8.25;6.08;;;;;;;11.99;100.00;100787.09;1737879;82;21033;-70
2021/06/01 09:38:43;;;;;;;7.65;5.92;;;;;;;11.96;100.00;100786.48;1737422;82;21073;-70
2021/06/01 09:41:16;;;;;;;6.17;5.58;;;;;;;11.94;100.00;100787.88;1737355;82;21096;-67
2021/06/01 09:44:02;;;;;;;7.75;6.30;;;;;;;11.89;100.00;100791.27;1737528;82;21694;-67
2021/06/01 09:46:40;;;;;;;6.78;6.08;;;;;;;11.83;100.00;100791.70;1691663;84;21264;-70
2021/06/01 09:49:19;;;;;;;7.45;6.53;;;;;;;11.84;100.00;100784.73;1690831;84;21141;-71
2021/06/01 09:51:57;;;;;;;7.80;6.67;;;;;;;11.79;100.00;100791.54;1690717;84;21313;-66
2021/06/01 09:54:55;;;;;;;7.35;6.65;;;;;;;11.77;100.00;100794.72;1710900;81;21183;-71
2021/06/01 09:57:24;;;;;;;7.13;6.43;;;;;;;11.74;100.00;100785.84;1691438;84;21664;-76
2021/06/01 10:00:17;;;;;;;9.60;8.00;;;;;;;11.74;100.00;100785.84;1691223;84;21158;-71
2021/06/01 10:02:51;;;;;;;8.18;7.37;;;;;;;11.77;100.00;100787.39;1708691;82;21045;-76
2021/06/01 10:05:23;;;;;;;12.98;7.42;;;;;;;11.81;100.00;100789.66;1737850;82;21128;-70
2021/06/01 10:07:51;;;;;;;9.23;8.35;;;;;;;11.82;100.00;100791.79;1737802;82;21085;-70
2021/06/01 10:10:23;;;;;;;8.73;7.50;;;;;;;11.87;100.00;100787.92;1746143;82;20977;-71
2021/06/01 10:12:57;;;;;;;8.25;7.42;;;;;;;11.85;100.00;100787.67;1745631;81;21116;-75
2021/06/01 10:15:26;;;;;;;9.13;7.83;;;;;;;11.88;100.00;100783.09;1746041;81;21009;-68
2021/06/01 10:17:55;;;;;;;9.80;7.83;;;;;;;11.90;100.00;100785.61;1735859;81;21151;-74
2021/06/01 10:20:24;;;;;;;9.48;7.72;;;;;;;11.93;100.00;100784.93;1733895;82;21736;-71
2021/06/01 10:22:52;;;;;;;9.15;8.13;;;;;;;11.93;100.00;100782.33;1741021;81;21160;-69
2021/06/01 10:25:19;;;;;;;11.25;8.03;;;;;;;11.93;100.00;100781.49;1746981;82;21115;-71
2021/06/01 10:27:49;;;;;;;11.15;8.13;;;;;;;11.95;100.00;100793.91;1740013;82;21119;-72
2021/06/01 10:30:16;;;;;;;8.50;7.55;;;;;;;11.98;100.00;100784.12;1734124;82;21054;-72
2021/06/01 10:32:58;;;;;;;8.53;7.72;;;;;;;12.04;100.00;100790.20;1735928;81;21409;-74
2021/06/01 10:35:29;;;;;;;11.45;7.87;;;;;;;12.07;100.00;100791.28;1724863;82;21645;-75
2021/06/01 10:50:22;;;;;;;13.98;9.28;;;;;;;12.17;100.00;100797.97;1730881;81;21063;-75
2021/06/01 10:53:24;;;;;;;10.98;9.83;;;;;;;12.19;100.00;100789.58;1730542;82;21169;-78
2021/06/01 10:55:55;;;;;;;10.53;9.48;;;;;;;12.19;100.00;100795.62;1729077;82;21776;-71
2021/06/01 10:58:43;;;;;;;11.10;9.55;;;;;;;12.15;100.00;100792.89;1734540;82;21054;-70
2021/06/01 11:04:22;;;;;;;12.28;10.80;;;;;;;12.15;100.00;100795.95;1733906;82;21087;-68
2021/06/01 11:09:45;;;;;;;12.98;11.57;;;;;;;12.12;100.00;100798.78;1729810;82;21163;-69
2021/06/01 11:12:22;;;;;;;14.45;12.23;;;;;;;12.07;100.00;100799.08;1726572;83;22302;-70
2021/06/01 11:14:59;;;;;;;14.53;12.88;;;;;;;12.05;100.00;100791.03;1726777;83;21084;-73
2021/06/01 11:17:39;;;;;;;15.58;12.33;;;;;;;12.01;100.00;100791.72;1727160;83;21610;-72
2021/06/01 11:20:40;;;;;;;13.50;12.10;;;;;;;12.02;100.00;100797.28;1724630;83;21503;-70
2021/06/01 11:22:58;;;;;;;11.85;10.65;;;;;;;12.02;100.00;100794.69;1714241;83;21132;-68
2021/06/01 11:33:30;;;;;;;13.72;12.33;;;;;;;12.03;100.00;100796.82;1728726;83;21070;-71
2021/06/01 11:36:01;;;;;;;12.65;11.43;;;;;;;12.02;100.00;100787.34;1728459;83;20932;-76
2021/06/01 11:44:21;;;;;;;13.28;10.10;;;;;;;12.07;100.00;100799.08;1728751;83;21586;-70
2021/06/01 11:46:58;;;;;;;13.60;10.98;;;;;;;12.10;100.00;100794.97;1728180;83;21043;-68
2021/06/01 11:52:13;;;;;;;11.28;10.28;;;;;;;12.15;100.00;100797.26;1729108;83;21039;-76
2021/06/01 11:54:40;;;;;;;9.43;8.50;;;;;;;12.11;100.00;100798.41;1728629;81;21072;-78
2021/06/01 11:57:13;;;;;;;10.30;9.30;;;;;;;12.10;100.00;100798.03;1728486;83;21378;-72
2021/06/01 12:19:02;;;;;;;11.35;9.38;;;;;;;12.00;100.00;100810.84;1695756;84;21691;-70
2021/06/01 12:21:40;;;;;;;9.40;8.23;;;;;;;11.98;100.00;100813.20;1696151;84;21037;-75
2021/06/01 12:24:16;;;;;;;9.80;8.80;;;;;;;11.95;100.00;100812.11;1696041;83;21629;-75
2021/06/01 12:26:56;;;;;;;10.88;8.38;;;;;;;11.94;100.00;100813.88;1696002;84;21171;-70
2021/06/01 12:32:26;;;;;;;10.82;8.95;;;;;;;11.93;100.00;100812.23;1703331;84;20959;-76
2021/06/01 12:35:36;;;;;;;9.48;8.28;;;;;;;11.90;100.00;100811.12;1702905;84;21024;-77
2021/06/01 13:20:55;;;;;;;11.10;8.58;;;;;;;11.84;100.00;100823.24;1726959;83;20992;-76
2021/06/01 13:32:09;;;;;;;9.63;8.70;;;;;;;11.84;100.00;100825.84;1726528;83;21679;-70
2021/06/01 13:46:26;;;;;;;9.30;8.35;;;;;;;11.94;100.00;100829.48;1726643;83;20972;-73
2021/06/01 13:56:35;;;;;;;9.50;7.97;;;;;;;12.04;100.00;100830.98;1726853;83;21641;-70
2021/06/01 13:59:09;;;;;;;9.73;7.62;;;;;;;12.08;100.00;100828.07;1726477;83;21083;-73
2021/06/01 14:10:19;;;;;;;8.90;8.00;;;;;;;12.18;100.00;100830.40;1726856;82;21063;-69
2021/06/01 14:15:29;;;;;;;8.10;7.30;;;;;;;12.23;100.00;100834.42;1727067;83;21012;-69
2021/06/01 14:31:41;;;;;;;8.83;6.60;;;;;;;12.33;100.00;100834.98;1726895;83;21491;-73
2021/06/01 15:28:51;;;;;;;7.90;6.97;;;;;;;11.92;100.00;100870.84;1733157;82;20920;-69